sensor_id;sensor_type;location;lat;lon;timestamp;P1;durP1;ratioP1;P2;durP2;ratioP2
5491;SDS011;2768;53.540;10.224;2023-09-12T00:01:42;15.33;;;12.93;;
5491;SDS011;2768;53.540;10.224;2023-09-12T00:07:35;25.80;;;18.80;;
5491;SDS011;2768;53.540;10.224;2023-09-12T00:13:30;20.10;;;16.77;;
5491;SDS011;2768;53.540;10.224;2023-09-12T00:19:24;21.67;;;19.07;;
5491;SDS011;2768;53.540;10.224;2023-09-12T00:25:17;23.07;;;20.63;;
5491;SDS011;2768;53.540;10.224;2023-09-12T00:31:12;25.70;;;22.93;;
5491;SDS011;2768;53.540;10.224;2023-09-12T00:37:05;25.80;;;23.03;;
5491;SDS011;2768;53.540;10.224;2023-09-12T00:42:58;27.97;;;24.43;;
5491;SDS011;2768;53.540;10.224;2023-09-12T00:48:53;36.13;;;30.80;;
5491;SDS011;2768;53.540;10.224;2023-09-12T00:54:49;42.07;;;34.43;;
5491;SDS011;2768;53.540;10.224;2023-09-12T01:00:42;43.07;;;35.20;;
5491;SDS011;2768;53.540;10.224;2023-09-12T01:06:37;40.67;;;35.03;;
5491;SDS011;2768;53.540;10.224;2023-09-12T01:12:31;45.80;;;36.70;;
5491;SDS011;2768;53.540;10.224;2023-09-12T01:18:24;48.97;;;37.73;;
5491;SDS011;2768;53.540;10.224;2023-09-12T01:24:26;47.50;;;37.33;;
5491;SDS011;2768;53.540;10.224;2023-09-12T01:30:35;50.93;;;38.30;;
5491;SDS011;2768;53.540;10.224;2023-09-12T01:36:29;48.20;;;35.10;;
5491;SDS011;2768;53.540;10.224;2023-09-12T01:42:22;44.40;;;35.07;;
5491;SDS011;2768;53.540;10.224;2023-09-12T01:48:18;45.80;;;35.60;;
5491;SDS011;2768;53.540;10.224;2023-09-12T01:54:13;42.60;;;34.37;;
5491;SDS011;2768;53.540;10.224;2023-09-12T02:00:07;40.20;;;31.93;;
5491;SDS011;2768;53.540;10.224;2023-09-12T02:06:03;42.43;;;35.27;;
5491;SDS011;2768;53.540;10.224;2023-09-12T02:11:57;45.97;;;35.67;;
5491;SDS011;2768;53.540;10.224;2023-09-12T02:17:50;45.93;;;36.30;;
5491;SDS011;2768;53.540;10.224;2023-09-12T02:23:46;48.03;;;39.37;;
5491;SDS011;2768;53.540;10.224;2023-09-12T02:29:39;47.23;;;38.10;;
5491;SDS011;2768;53.540;10.224;2023-09-12T02:35:33;43.73;;;36.17;;
5491;SDS011;2768;53.540;10.224;2023-09-12T02:41:28;39.87;;;32.93;;
5491;SDS011;2768;53.540;10.224;2023-09-12T02:47:21;34.37;;;30.60;;
5491;SDS011;2768;53.540;10.224;2023-09-12T02:53:15;33.40;;;28.67;;
5491;SDS011;2768;53.540;10.224;2023-09-12T02:59:10;36.27;;;26.50;;
5491;SDS011;2768;53.540;10.224;2023-09-12T03:05:03;26.77;;;23.73;;
5491;SDS011;2768;53.540;10.224;2023-09-12T03:10:57;28.30;;;25.10;;
5491;SDS011;2768;53.540;10.224;2023-09-12T03:16:54;24.43;;;21.93;;
5491;SDS011;2768;53.540;10.224;2023-09-12T03:22:48;26.83;;;23.50;;
5491;SDS011;2768;53.540;10.224;2023-09-12T03:28:42;29.90;;;24.37;;
5491;SDS011;2768;53.540;10.224;2023-09-12T03:34:37;30.33;;;25.80;;
5491;SDS011;2768;53.540;10.224;2023-09-12T03:40:30;32.50;;;24.00;;
5491;SDS011;2768;53.540;10.224;2023-09-12T03:46:24;28.73;;;25.73;;
5491;SDS011;2768;53.540;10.224;2023-09-12T03:52:19;29.07;;;26.00;;
5491;SDS011;2768;53.540;10.224;2023-09-12T03:58:13;31.60;;;23.90;;
5491;SDS011;2768;53.540;10.224;2023-09-12T04:04:07;30.73;;;26.40;;
5491;SDS011;2768;53.540;10.224;2023-09-12T04:10:02;30.40;;;26.50;;
5491;SDS011;2768;53.540;10.224;2023-09-12T04:15:55;31.30;;;27.53;;
5491;SDS011;2768;53.540;10.224;2023-09-12T04:21:49;33.33;;;27.40;;
5491;SDS011;2768;53.540;10.224;2023-09-12T04:27:44;30.77;;;27.43;;
5491;SDS011;2768;53.540;10.224;2023-09-12T04:33:37;38.87;;;31.70;;
5491;SDS011;2768;53.540;10.224;2023-09-12T04:39:31;38.10;;;31.20;;
5491;SDS011;2768;53.540;10.224;2023-09-12T04:45:26;39.03;;;31.40;;
5491;SDS011;2768;53.540;10.224;2023-09-12T04:51:19;36.83;;;31.50;;
5491;SDS011;2768;53.540;10.224;2023-09-12T04:57:13;38.27;;;33.83;;
5491;SDS011;2768;53.540;10.224;2023-09-12T05:03:07;40.83;;;33.73;;
5491;SDS011;2768;53.540;10.224;2023-09-12T05:09:01;41.77;;;33.47;;
5491;SDS011;2768;53.540;10.224;2023-09-12T05:14:54;43.70;;;37.27;;
5491;SDS011;2768;53.540;10.224;2023-09-12T05:20:49;52.13;;;43.30;;
5491;SDS011;2768;53.540;10.224;2023-09-12T05:26:42;54.23;;;44.07;;
5491;SDS011;2768;53.540;10.224;2023-09-12T05:32:36;53.67;;;42.43;;
5491;SDS011;2768;53.540;10.224;2023-09-12T05:38:31;54.67;;;45.57;;
5491;SDS011;2768;53.540;10.224;2023-09-12T05:44:24;55.30;;;43.93;;
5491;SDS011;2768;53.540;10.224;2023-09-12T05:50:17;49.47;;;41.00;;
5491;SDS011;2768;53.540;10.224;2023-09-12T05:56:13;49.63;;;40.47;;
5491;SDS011;2768;53.540;10.224;2023-09-12T06:02:06;56.47;;;43.70;;
5491;SDS011;2768;53.540;10.224;2023-09-12T06:08:01;58.67;;;44.17;;
5491;SDS011;2768;53.540;10.224;2023-09-12T06:13:57;54.63;;;43.87;;
5491;SDS011;2768;53.540;10.224;2023-09-12T06:19:50;50.07;;;39.80;;
5491;SDS011;2768;53.540;10.224;2023-09-12T06:25:43;56.50;;;42.90;;
5491;SDS011;2768;53.540;10.224;2023-09-12T06:31:38;56.17;;;43.40;;
5491;SDS011;2768;53.540;10.224;2023-09-12T06:37:33;50.90;;;41.33;;
5491;SDS011;2768;53.540;10.224;2023-09-12T06:43:26;55.70;;;42.87;;
5491;SDS011;2768;53.540;10.224;2023-09-12T06:49:21;56.17;;;42.23;;
5491;SDS011;2768;53.540;10.224;2023-09-12T06:55:14;50.50;;;41.73;;
5491;SDS011;2768;53.540;10.224;2023-09-12T07:01:07;50.40;;;41.50;;
5491;SDS011;2768;53.540;10.224;2023-09-12T07:07:02;48.87;;;40.20;;
5491;SDS011;2768;53.540;10.224;2023-09-12T07:12:56;51.33;;;41.37;;
5491;SDS011;2768;53.540;10.224;2023-09-12T07:18:50;49.03;;;39.77;;
5491;SDS011;2768;53.540;10.224;2023-09-12T07:24:45;46.77;;;38.10;;
5491;SDS011;2768;53.540;10.224;2023-09-12T07:30:38;49.23;;;40.40;;
5491;SDS011;2768;53.540;10.224;2023-09-12T07:36:31;47.47;;;36.97;;
5491;SDS011;2768;53.540;10.224;2023-09-12T07:42:26;51.43;;;39.83;;
5491;SDS011;2768;53.540;10.224;2023-09-12T07:48:19;50.10;;;40.07;;
5491;SDS011;2768;53.540;10.224;2023-09-12T07:54:12;46.90;;;36.97;;
5491;SDS011;2768;53.540;10.224;2023-09-12T08:00:08;56.57;;;42.70;;
5491;SDS011;2768;53.540;10.224;2023-09-12T08:06:02;52.77;;;41.00;;
5491;SDS011;2768;53.540;10.224;2023-09-12T08:11:55;48.80;;;38.13;;
5491;SDS011;2768;53.540;10.224;2023-09-12T08:17:50;49.20;;;38.73;;
5491;SDS011;2768;53.540;10.224;2023-09-12T08:23:44;50.50;;;41.20;;
5491;SDS011;2768;53.540;10.224;2023-09-12T08:29:38;50.07;;;41.10;;
5491;SDS011;2768;53.540;10.224;2023-09-12T08:35:34;48.60;;;39.20;;
5491;SDS011;2768;53.540;10.224;2023-09-12T08:41:27;45.73;;;37.43;;
5491;SDS011;2768;53.540;10.224;2023-09-12T08:47:21;43.40;;;35.00;;
5491;SDS011;2768;53.540;10.224;2023-09-12T08:53:17;42.37;;;36.00;;
5491;SDS011;2768;53.540;10.224;2023-09-12T08:59:14;43.23;;;34.90;;
5491;SDS011;2768;53.540;10.224;2023-09-12T09:05:08;40.13;;;32.80;;
5491;SDS011;2768;53.540;10.224;2023-09-12T09:11:04;34.37;;;29.87;;
5491;SDS011;2768;53.540;10.224;2023-09-12T09:16:58;31.00;;;27.80;;
5491;SDS011;2768;53.540;10.224;2023-09-12T09:22:58;30.33;;;27.03;;
5491;SDS011;2768;53.540;10.224;2023-09-12T09:29:03;32.67;;;26.67;;
5491;SDS011;2768;53.540;10.224;2023-09-12T09:34:58;30.63;;;27.30;;
5491;SDS011;2768;53.540;10.224;2023-09-12T09:40:51;30.27;;;26.93;;
5491;SDS011;2768;53.540;10.224;2023-09-12T09:46:49;28.50;;;25.40;;
5491;SDS011;2768;53.540;10.224;2023-09-12T09:52:44;25.90;;;23.20;;
5491;SDS011;2768;53.540;10.224;2023-09-12T09:58:41;24.70;;;20.90;;
5491;SDS011;2768;53.540;10.224;2023-09-12T10:04:41;25.70;;;22.07;;
5491;SDS011;2768;53.540;10.224;2023-09-12T10:10:37;28.27;;;25.27;;
5491;SDS011;2768;53.540;10.224;2023-09-12T10:16:31;24.60;;;21.60;;
5491;SDS011;2768;53.540;10.224;2023-09-12T10:22:28;29.13;;;24.50;;
5491;SDS011;2768;53.540;10.224;2023-09-12T10:28:27;29.03;;;25.77;;
5491;SDS011;2768;53.540;10.224;2023-09-12T10:34:20;29.17;;;26.00;;
5491;SDS011;2768;53.540;10.224;2023-09-12T10:40:18;30.03;;;26.73;;
5491;SDS011;2768;53.540;10.224;2023-09-12T10:46:17;33.70;;;29.30;;
5491;SDS011;2768;53.540;10.224;2023-09-12T10:52:10;29.90;;;26.60;;
5491;SDS011;2768;53.540;10.224;2023-09-12T10:58:17;31.30;;;26.67;;
5491;SDS011;2768;53.540;10.224;2023-09-12T11:04:29;32.87;;;27.57;;
5491;SDS011;2768;53.540;10.224;2023-09-12T11:10:25;29.33;;;26.17;;
5491;SDS011;2768;53.540;10.224;2023-09-12T11:16:20;27.77;;;25.03;;
5491;SDS011;2768;53.540;10.224;2023-09-12T11:22:20;27.17;;;24.37;;
5491;SDS011;2768;53.540;10.224;2023-09-12T11:28:18;28.47;;;24.77;;
5491;SDS011;2768;53.540;10.224;2023-09-12T11:34:13;24.73;;;22.23;;
5491;SDS011;2768;53.540;10.224;2023-09-12T11:40:16;25.23;;;22.70;;
5491;SDS011;2768;53.540;10.224;2023-09-12T11:46:15;25.30;;;22.70;;
5491;SDS011;2768;53.540;10.224;2023-09-12T11:52:09;24.40;;;20.90;;
5491;SDS011;2768;53.540;10.224;2023-09-12T11:58:04;20.07;;;18.07;;
5491;SDS011;2768;53.540;10.224;2023-09-12T12:03:58;20.70;;;18.60;;
5491;SDS011;2768;53.540;10.224;2023-09-12T12:09:53;29.00;;;20.97;;
5491;SDS011;2768;53.540;10.224;2023-09-12T12:15:48;21.47;;;19.17;;
5491;SDS011;2768;53.540;10.224;2023-09-12T12:21:42;22.03;;;19.87;;
5491;SDS011;2768;53.540;10.224;2023-09-12T12:27:37;18.90;;;17.10;;
5491;SDS011;2768;53.540;10.224;2023-09-12T12:33:31;20.70;;;18.70;;
5491;SDS011;2768;53.540;10.224;2023-09-12T12:39:44;17.67;;;15.77;;
5491;SDS011;2768;53.540;10.224;2023-09-12T12:45:39;17.50;;;15.70;;
5491;SDS011;2768;53.540;10.224;2023-09-12T12:51:46;16.47;;;14.93;;
5491;SDS011;2768;53.540;10.224;2023-09-12T12:57:41;16.60;;;15.00;;
5491;SDS011;2768;53.540;10.224;2023-09-12T13:03:36;15.90;;;14.30;;
5491;SDS011;2768;53.540;10.224;2023-09-12T13:09:30;16.37;;;14.80;;
5491;SDS011;2768;53.540;10.224;2023-09-12T13:15:23;16.10;;;14.40;;
5491;SDS011;2768;53.540;10.224;2023-09-12T13:21:18;16.07;;;14.57;;
5491;SDS011;2768;53.540;10.224;2023-09-12T13:27:11;16.97;;;15.30;;
5491;SDS011;2768;53.540;10.224;2023-09-12T13:33:04;15.57;;;14.07;;
5491;SDS011;2768;53.540;10.224;2023-09-12T13:38:59;15.00;;;13.53;;
5491;SDS011;2768;53.540;10.224;2023-09-12T13:44:54;14.27;;;12.20;;
5491;SDS011;2768;53.540;10.224;2023-09-12T13:50:47;13.97;;;12.63;;
5491;SDS011;2768;53.540;10.224;2023-09-12T13:56:43;15.17;;;13.77;;
5491;SDS011;2768;53.540;10.224;2023-09-12T14:02:36;14.43;;;13.00;;
5491;SDS011;2768;53.540;10.224;2023-09-12T14:08:30;15.10;;;13.80;;
5491;SDS011;2768;53.540;10.224;2023-09-12T14:14:46;15.53;;;14.17;;
5491;SDS011;2768;53.540;10.224;2023-09-12T14:20:56;12.90;;;11.70;;
5491;SDS011;2768;53.540;10.224;2023-09-12T14:26:50;12.40;;;11.30;;
5491;SDS011;2768;53.540;10.224;2023-09-12T14:32:45;12.90;;;11.90;;
5491;SDS011;2768;53.540;10.224;2023-09-12T14:38:38;13.30;;;12.13;;
5491;SDS011;2768;53.540;10.224;2023-09-12T14:44:31;13.57;;;12.37;;
5491;SDS011;2768;53.540;10.224;2023-09-12T14:50:26;14.73;;;13.17;;
5491;SDS011;2768;53.540;10.224;2023-09-12T14:56:33;15.43;;;14.03;;
5491;SDS011;2768;53.540;10.224;2023-09-12T15:02:30;13.80;;;12.53;;
5491;SDS011;2768;53.540;10.224;2023-09-12T15:08:25;13.33;;;12.10;;
5491;SDS011;2768;53.540;10.224;2023-09-12T15:14:18;11.47;;;10.40;;
5491;SDS011;2768;53.540;10.224;2023-09-12T15:20:13;12.00;;;11.00;;
5491;SDS011;2768;53.540;10.224;2023-09-12T15:26:08;11.23;;;10.20;;
5491;SDS011;2768;53.540;10.224;2023-09-12T15:32:01;11.47;;;10.47;;
5491;SDS011;2768;53.540;10.224;2023-09-12T15:37:55;11.70;;;10.60;;
5491;SDS011;2768;53.540;10.224;2023-09-12T15:43:49;11.43;;;10.33;;
5491;SDS011;2768;53.540;10.224;2023-09-12T15:50:01;11.77;;;10.57;;
5491;SDS011;2768;53.540;10.224;2023-09-12T15:55:55;14.40;;;11.70;;
5491;SDS011;2768;53.540;10.224;2023-09-12T16:01:50;10.30;;;9.50;;
5491;SDS011;2768;53.540;10.224;2023-09-12T16:07:43;13.57;;;12.37;;
5491;SDS011;2768;53.540;10.224;2023-09-12T16:13:37;13.80;;;12.47;;
5491;SDS011;2768;53.540;10.224;2023-09-12T16:19:31;12.07;;;10.97;;
5491;SDS011;2768;53.540;10.224;2023-09-12T16:25:26;12.80;;;11.60;;
5491;SDS011;2768;53.540;10.224;2023-09-12T16:31:19;13.53;;;12.40;;
5491;SDS011;2768;53.540;10.224;2023-09-12T16:37:15;13.93;;;12.60;;
5491;SDS011;2768;53.540;10.224;2023-09-12T16:43:08;14.47;;;13.20;;
5491;SDS011;2768;53.540;10.224;2023-09-12T16:49:03;13.87;;;12.67;;
5491;SDS011;2768;53.540;10.224;2023-09-12T16:54:57;12.50;;;11.27;;
5491;SDS011;2768;53.540;10.224;2023-09-12T17:00:51;13.07;;;11.77;;
5491;SDS011;2768;53.540;10.224;2023-09-12T17:06:45;12.43;;;11.20;;
5491;SDS011;2768;53.540;10.224;2023-09-12T17:12:40;13.17;;;11.77;;
5491;SDS011;2768;53.540;10.224;2023-09-12T17:18:33;12.93;;;11.47;;
5491;SDS011;2768;53.540;10.224;2023-09-12T17:24:27;12.87;;;11.87;;
5491;SDS011;2768;53.540;10.224;2023-09-12T17:30:22;13.50;;;12.30;;
5491;SDS011;2768;53.540;10.224;2023-09-12T17:36:15;13.93;;;12.63;;
5491;SDS011;2768;53.540;10.224;2023-09-12T17:42:09;13.17;;;12.07;;
5491;SDS011;2768;53.540;10.224;2023-09-12T17:48:04;14.10;;;12.90;;
5491;SDS011;2768;53.540;10.224;2023-09-12T17:53:58;14.80;;;13.37;;
5491;SDS011;2768;53.540;10.224;2023-09-12T17:59:51;12.90;;;11.80;;
5491;SDS011;2768;53.540;10.224;2023-09-12T18:05:48;13.87;;;12.37;;
5491;SDS011;2768;53.540;10.224;2023-09-12T18:11:41;13.57;;;12.33;;
5491;SDS011;2768;53.540;10.224;2023-09-12T18:17:35;13.83;;;12.43;;
5491;SDS011;2768;53.540;10.224;2023-09-12T18:23:29;12.73;;;11.63;;
5491;SDS011;2768;53.540;10.224;2023-09-12T18:29:22;13.13;;;11.97;;
5491;SDS011;2768;53.540;10.224;2023-09-12T18:35:17;15.27;;;13.83;;
5491;SDS011;2768;53.540;10.224;2023-09-12T18:41:14;13.40;;;12.20;;
5491;SDS011;2768;53.540;10.224;2023-09-12T18:47:07;13.80;;;12.60;;
5491;SDS011;2768;53.540;10.224;2023-09-12T18:53:01;14.23;;;13.03;;
5491;SDS011;2768;53.540;10.224;2023-09-12T18:58:56;14.23;;;12.93;;
5491;SDS011;2768;53.540;10.224;2023-09-12T19:04:50;12.53;;;11.50;;
5491;SDS011;2768;53.540;10.224;2023-09-12T19:10:44;12.30;;;11.20;;
5491;SDS011;2768;53.540;10.224;2023-09-12T19:16:40;12.90;;;11.77;;
5491;SDS011;2768;53.540;10.224;2023-09-12T19:22:34;13.80;;;12.50;;
5491;SDS011;2768;53.540;10.224;2023-09-12T19:28:28;15.00;;;13.60;;
5491;SDS011;2768;53.540;10.224;2023-09-12T19:34:23;14.40;;;13.00;;
5491;SDS011;2768;53.540;10.224;2023-09-12T19:40:16;13.23;;;11.80;;
5491;SDS011;2768;53.540;10.224;2023-09-12T19:46:10;12.83;;;11.63;;
5491;SDS011;2768;53.540;10.224;2023-09-12T19:52:05;13.57;;;11.27;;
5491;SDS011;2768;53.540;10.224;2023-09-12T19:57:59;14.10;;;12.90;;
5491;SDS011;2768;53.540;10.224;2023-09-12T20:03:53;13.03;;;11.87;;
5491;SDS011;2768;53.540;10.224;2023-09-12T20:09:48;13.87;;;12.27;;
5491;SDS011;2768;53.540;10.224;2023-09-12T20:15:41;13.33;;;12.13;;
5491;SDS011;2768;53.540;10.224;2023-09-12T20:21:35;13.47;;;12.03;;
5491;SDS011;2768;53.540;10.224;2023-09-12T20:27:30;13.10;;;11.90;;
5491;SDS011;2768;53.540;10.224;2023-09-12T20:33:23;12.17;;;11.07;;
5491;SDS011;2768;53.540;10.224;2023-09-12T20:39:21;13.87;;;12.67;;
5491;SDS011;2768;53.540;10.224;2023-09-12T20:45:17;16.33;;;13.03;;
5491;SDS011;2768;53.540;10.224;2023-09-12T20:51:11;12.17;;;10.90;;
5491;SDS011;2768;53.540;10.224;2023-09-12T20:57:06;11.87;;;10.67;;
5491;SDS011;2768;53.540;10.224;2023-09-12T21:03:02;13.70;;;12.00;;
5491;SDS011;2768;53.540;10.224;2023-09-12T21:08:57;11.57;;;10.53;;
5491;SDS011;2768;53.540;10.224;2023-09-12T21:14:51;10.13;;;9.20;;
5491;SDS011;2768;53.540;10.224;2023-09-12T21:20:45;9.73;;;8.43;;
5491;SDS011;2768;53.540;10.224;2023-09-12T21:26:39;9.80;;;8.60;;
5491;SDS011;2768;53.540;10.224;2023-09-12T21:32:56;9.97;;;9.10;;
5491;SDS011;2768;53.540;10.224;2023-09-12T21:38:51;10.90;;;9.60;;
5491;SDS011;2768;53.540;10.224;2023-09-12T21:44:45;9.20;;;8.30;;
5491;SDS011;2768;53.540;10.224;2023-09-12T21:50:38;9.77;;;8.97;;
5491;SDS011;2768;53.540;10.224;2023-09-12T21:56:33;10.03;;;9.13;;
5491;SDS011;2768;53.540;10.224;2023-09-12T22:02:26;10.10;;;9.20;;
5491;SDS011;2768;53.540;10.224;2023-09-12T22:08:20;10.00;;;9.20;;
5491;SDS011;2768;53.540;10.224;2023-09-12T22:14:14;9.10;;;8.30;;
5491;SDS011;2768;53.540;10.224;2023-09-12T22:20:08;10.00;;;8.30;;
5491;SDS011;2768;53.540;10.224;2023-09-12T22:26:07;8.47;;;7.70;;
5491;SDS011;2768;53.540;10.224;2023-09-12T22:32:03;8.87;;;7.90;;
5491;SDS011;2768;53.540;10.224;2023-09-12T22:37:57;8.10;;;7.40;;
5491;SDS011;2768;53.540;10.224;2023-09-12T22:43:50;9.20;;;8.40;;
5491;SDS011;2768;53.540;10.224;2023-09-12T22:49:45;7.87;;;7.17;;
5491;SDS011;2768;53.540;10.224;2023-09-12T22:55:38;8.00;;;7.30;;
5491;SDS011;2768;53.540;10.224;2023-09-12T23:01:33;8.60;;;6.37;;
5491;SDS011;2768;53.540;10.224;2023-09-12T23:07:28;9.10;;;7.90;;
5491;SDS011;2768;53.540;10.224;2023-09-12T23:13:21;9.07;;;8.37;;
5491;SDS011;2768;53.540;10.224;2023-09-12T23:19:14;10.27;;;8.03;;
5491;SDS011;2768;53.540;10.224;2023-09-12T23:25:09;8.83;;;8.13;;
5491;SDS011;2768;53.540;10.224;2023-09-12T23:31:03;9.97;;;9.07;;
5491;SDS011;2768;53.540;10.224;2023-09-12T23:36:57;10.10;;;9.30;;
5491;SDS011;2768;53.540;10.224;2023-09-12T23:42:51;8.93;;;8.03;;
5491;SDS011;2768;53.540;10.224;2023-09-12T23:48:45;8.70;;;7.90;;
5491;SDS011;2768;53.540;10.224;2023-09-12T23:54:38;10.37;;;8.93;;
